createdAt,value
2023-03-07T00:00:35.167Z,26.27
2023-03-07T00:03:24.437Z,27.30
2023-03-07T00:06:13.503Z,26.40
2023-03-07T00:09:04.493Z,24.13
2023-03-07T00:11:53.984Z,28.20
2023-03-07T00:14:43.031Z,30.00
2023-03-07T00:17:32.103Z,26.90
2023-03-07T00:20:21.311Z,27.73
2023-03-07T00:23:10.346Z,30.77
2023-03-07T00:26:02.440Z,27.80
2023-03-07T00:28:52.675Z,27.97
2023-03-07T00:31:41.856Z,25.80
2023-03-07T00:34:31.105Z,25.80
2023-03-07T00:37:23.143Z,25.40
2023-03-07T00:40:13.916Z,32.00
2023-03-07T00:43:04.613Z,27.10
2023-03-07T00:45:54.167Z,25.67
2023-03-07T00:48:44.012Z,26.13
2023-03-07T00:51:36.595Z,27.73
2023-03-07T00:54:26.443Z,26.47
2023-03-07T00:57:15.817Z,28.80
2023-03-07T01:00:07.550Z,24.80
2023-03-07T01:02:58.249Z,26.67
2023-03-07T01:05:49.311Z,27.60
2023-03-07T01:08:39.449Z,25.43
2023-03-07T01:11:30.158Z,28.63
2023-03-07T01:14:19.388Z,26.03
2023-03-07T01:17:09.823Z,27.23
2023-03-07T01:19:59.500Z,30.47
2023-03-07T01:22:48.726Z,27.27
2023-03-07T01:25:41.518Z,27.73
2023-03-07T01:28:31.300Z,25.00
2023-03-07T01:31:21.026Z,28.60
2023-03-07T01:34:11.786Z,28.80
2023-03-07T01:37:01.511Z,26.10
2023-03-07T01:39:52.478Z,27.00
2023-03-07T01:42:42.093Z,28.67
2023-03-07T01:46:20.145Z,25.80
2023-03-07T01:49:18.654Z,27.13
2023-03-07T01:52:11.504Z,27.23
2023-03-07T01:55:06.817Z,26.70
2023-03-07T01:57:56.903Z,26.70
2023-03-07T02:00:47.463Z,32.73
2023-03-07T02:03:40.072Z,26.37
2023-03-07T02:06:31.737Z,27.07
2023-03-07T02:09:22.787Z,25.80
2023-03-07T02:12:12.671Z,26.90
2023-03-07T02:15:01.689Z,27.00
2023-03-07T02:17:51.108Z,26.80
2023-03-07T02:20:44.145Z,30.47
2023-03-07T02:23:40.029Z,27.27
2023-03-07T02:26:40.524Z,27.53
2023-03-07T02:29:30.306Z,25.97
2023-03-07T02:32:23.236Z,31.83
2023-03-07T02:35:15.812Z,28.77
2023-03-07T02:38:12.964Z,29.03
2023-03-07T02:41:02.141Z,26.90
2023-03-07T02:43:53.510Z,25.47
2023-03-07T02:46:42.907Z,25.03
2023-03-07T02:49:32.099Z,27.47
2023-03-07T02:52:21.810Z,25.77
2023-03-07T02:55:11.973Z,29.00
2023-03-07T02:58:06.953Z,26.73
2023-03-07T03:00:57.596Z,29.47
2023-03-07T03:03:46.635Z,28.57
2023-03-07T03:06:36.724Z,25.60
2023-03-07T03:09:26.613Z,28.63
2023-03-07T03:12:15.882Z,27.93
2023-03-07T03:15:06.278Z,27.10
2023-03-07T03:17:57.035Z,28.93
2023-03-07T03:20:46.789Z,27.83
2023-03-07T03:23:35.854Z,26.10
2023-03-07T03:26:24.948Z,27.40
2023-03-07T03:29:15.000Z,25.90
2023-03-07T03:32:04.388Z,25.37
2023-03-07T03:34:55.239Z,27.00
2023-03-07T03:37:44.558Z,26.10
2023-03-07T03:40:33.900Z,26.13
2023-03-07T03:43:24.202Z,25.67
2023-03-07T03:46:13.642Z,29.67
2023-03-07T03:49:02.807Z,26.17
2023-03-07T03:51:53.544Z,31.53
2023-03-07T03:54:42.976Z,38.23
2023-03-07T03:57:32.465Z,25.93
2023-03-07T04:00:22.120Z,28.33
2023-03-07T04:03:11.224Z,31.13
2023-03-07T04:06:02.864Z,27.73
2023-03-07T04:08:54.179Z,26.10
2023-03-07T04:11:43.649Z,27.33
2023-03-07T04:14:33.017Z,25.30
2023-03-07T04:17:22.388Z,26.27
2023-03-07T04:20:19.105Z,27.10
2023-03-07T04:23:09.528Z,26.60
2023-03-07T04:26:04.668Z,27.07
2023-03-07T04:28:54.373Z,26.83
2023-03-07T04:31:48.665Z,27.33
2023-03-07T04:34:38.793Z,27.10
2023-03-07T04:37:28.369Z,26.40
2023-03-07T04:40:17.906Z,25.80
2023-03-07T04:43:09.058Z,30.33
2023-03-07T04:45:58.356Z,27.60
2023-03-07T04:48:48.014Z,28.83
2023-03-07T04:51:43.057Z,28.33
2023-03-07T04:54:33.820Z,31.93
2023-03-07T04:57:24.931Z,26.87
2023-03-07T05:00:17.376Z,26.90
2023-03-07T05:03:07.168Z,28.00
2023-03-07T05:05:56.530Z,27.50
2023-03-07T05:08:45.687Z,28.10
2023-03-07T05:11:34.904Z,27.70
2023-03-07T05:14:24.464Z,30.03
2023-03-07T05:17:15.555Z,28.50
2023-03-07T05:20:05.381Z,30.10
2023-03-07T05:22:56.571Z,29.53
2023-03-07T05:25:47.159Z,28.90
2023-03-07T05:28:36.489Z,27.33
2023-03-07T05:31:26.211Z,26.90
2023-03-07T05:34:17.277Z,26.63
2023-03-07T05:37:06.884Z,27.10
2023-03-07T05:39:56.061Z,28.13
2023-03-07T05:42:47.844Z,28.47
2023-03-07T05:45:40.542Z,38.10
2023-03-07T05:48:29.606Z,28.20
2023-03-07T05:51:20.411Z,27.23
2023-03-07T05:54:09.987Z,27.40
2023-03-07T05:56:59.667Z,30.83
2023-03-07T05:59:49.150Z,28.67
2023-03-07T06:02:38.447Z,27.33
2023-03-07T06:05:27.576Z,28.37
2023-03-07T06:08:18.134Z,28.03
2023-03-07T06:11:07.540Z,26.17
2023-03-07T06:14:02.756Z,29.73
2023-03-07T06:16:52.134Z,34.57
2023-03-07T06:19:41.411Z,30.30
2023-03-07T06:22:31.979Z,28.30
2023-03-07T06:25:23.111Z,31.90
2023-03-07T06:28:12.955Z,33.87
2023-03-07T06:31:02.138Z,31.40
2023-03-07T06:33:57.498Z,39.77
2023-03-07T06:36:49.033Z,27.30
2023-03-07T06:39:38.534Z,28.37
2023-03-07T06:42:30.306Z,28.43
2023-03-07T06:45:20.192Z,28.60
2023-03-07T06:48:09.360Z,27.20
2023-03-07T06:50:58.422Z,29.40
2023-03-07T06:53:47.691Z,26.47
2023-03-07T06:56:36.758Z,28.37
2023-03-07T06:59:27.452Z,27.20
2023-03-07T07:02:17.160Z,27.90
2023-03-07T07:05:06.874Z,25.70
2023-03-07T07:07:56.395Z,27.40
2023-03-07T07:10:45.977Z,29.60
2023-03-07T07:13:35.347Z,27.43
2023-03-07T07:16:26.607Z,27.27
2023-03-07T07:19:16.271Z,26.97
2023-03-07T07:22:06.516Z,25.70
2023-03-07T07:24:56.109Z,25.23
2023-03-07T07:27:45.685Z,29.73
2023-03-07T07:30:35.112Z,25.37
2023-03-07T07:33:25.881Z,25.80
2023-03-07T07:36:15.619Z,26.30
2023-03-07T07:39:06.343Z,27.17
2023-03-07T07:42:08.214Z,24.73
2023-03-07T07:45:09.387Z,26.00
2023-03-07T07:47:58.648Z,27.00
2023-03-07T07:50:49.226Z,25.73
2023-03-07T07:53:38.692Z,25.27
2023-03-07T07:56:27.979Z,22.93
2023-03-07T07:59:17.147Z,26.73
2023-03-07T08:02:06.454Z,25.43
2023-03-07T08:04:55.583Z,26.13
2023-03-07T08:07:46.353Z,29.13
2023-03-07T08:10:35.868Z,27.93
2023-03-07T08:13:24.916Z,25.57
2023-03-07T08:16:16.106Z,24.53
2023-03-07T08:19:05.521Z,25.00
2023-03-07T08:21:54.532Z,23.93
2023-03-07T08:24:44.967Z,24.70
2023-03-07T08:27:35.581Z,23.67
2023-03-07T08:30:25.221Z,27.20
2023-03-07T08:33:14.485Z,22.73
2023-03-07T08:36:03.742Z,23.73
2023-03-07T08:38:53.080Z,22.93
2023-03-07T08:41:43.140Z,27.10
2023-03-07T08:44:32.505Z,22.20
2023-03-07T08:47:21.958Z,24.63
2023-03-07T08:50:12.393Z,23.33
2023-03-07T08:53:01.488Z,24.50
2023-03-07T08:55:50.822Z,23.43
2023-03-07T08:58:41.950Z,20.63
2023-03-07T09:01:30.906Z,20.23
2023-03-07T09:04:19.910Z,18.60
2023-03-07T09:07:08.727Z,20.13
2023-03-07T09:09:57.730Z,25.30
2023-03-07T09:12:46.805Z,19.73
2023-03-07T09:15:39.731Z,21.53
2023-03-07T09:18:30.798Z,20.53
2023-03-07T09:21:20.525Z,21.43
2023-03-07T09:24:10.097Z,16.40
2023-03-07T09:26:59.253Z,19.47
2023-03-07T09:29:48.513Z,20.93
2023-03-07T09:32:38.955Z,17.37
2023-03-07T09:35:27.877Z,19.10
2023-03-07T09:38:17.047Z,18.10
2023-03-07T09:41:11.247Z,26.03
2023-03-07T09:44:06.043Z,15.00
2023-03-07T09:47:50.200Z,17.53
2023-03-07T09:50:42.549Z,17.83
2023-03-07T09:53:38.044Z,20.90
2023-03-07T09:56:31.095Z,20.57
2023-03-07T09:59:23.839Z,18.50
2023-03-07T10:02:17.341Z,14.77
2023-03-07T10:05:15.096Z,16.43
2023-03-07T10:08:05.159Z,15.93
2023-03-07T10:10:59.958Z,16.30
2023-03-07T10:14:00.621Z,17.07
2023-03-07T10:16:52.026Z,16.30
2023-03-07T10:19:46.567Z,16.10
2023-03-07T10:22:43.786Z,16.57
2023-03-07T10:25:34.761Z,20.57
2023-03-07T10:28:25.684Z,16.50
2023-03-07T10:31:19.450Z,16.67
2023-03-07T10:34:25.868Z,15.40
2023-03-07T10:37:19.405Z,18.13
2023-03-07T10:40:17.673Z,17.30
2023-03-07T10:43:06.593Z,16.50
2023-03-07T10:45:59.915Z,15.60
2023-03-07T10:48:50.910Z,15.93
2023-03-07T10:51:50.697Z,19.70
2023-03-07T10:54:40.568Z,16.97
2023-03-07T10:57:30.422Z,18.87
2023-03-07T11:00:20.089Z,17.33
2023-03-07T11:03:23.564Z,15.87
2023-03-07T11:06:39.493Z,17.57
2023-03-07T11:09:29.882Z,18.50
2023-03-07T11:12:21.821Z,23.10
2023-03-07T11:15:16.472Z,16.70
2023-03-07T11:18:05.051Z,16.87
2023-03-07T11:20:53.590Z,17.23
2023-03-07T11:23:42.126Z,17.97
2023-03-07T11:26:33.260Z,17.23
2023-03-07T11:29:21.724Z,16.60
2023-03-07T11:32:14.933Z,18.20
2023-03-07T11:35:07.244Z,16.90
2023-03-07T11:38:04.296Z,16.57
2023-03-07T11:40:56.773Z,18.23
2023-03-07T11:44:07.597Z,19.07
2023-03-07T11:47:15.562Z,18.57
2023-03-07T11:50:16.402Z,18.30
2023-03-07T11:53:43.469Z,21.50
2023-03-07T11:56:35.207Z,16.23
2023-03-07T11:59:52.051Z,17.63
2023-03-07T12:03:03.497Z,18.13
2023-03-07T12:06:19.484Z,18.93
2023-03-07T12:09:17.569Z,19.43
2023-03-07T12:12:18.470Z,19.20
2023-03-07T12:15:20.766Z,19.43
2023-03-07T12:18:39.308Z,16.60
2023-03-07T12:21:39.102Z,16.93
2023-03-07T12:24:29.670Z,16.80
2023-03-07T12:27:25.017Z,21.90
2023-03-07T12:30:18.151Z,19.13
2023-03-07T12:33:07.554Z,19.53
2023-03-07T12:35:59.949Z,19.83
2023-03-07T12:38:52.475Z,18.97
2023-03-07T12:41:49.437Z,20.60
2023-03-07T12:44:42.074Z,20.53
2023-03-07T12:47:33.800Z,19.40
2023-03-07T12:50:25.985Z,20.13
2023-03-07T12:53:22.617Z,20.10
2023-03-07T12:56:15.382Z,19.67
2023-03-07T12:59:10.066Z,16.97
2023-03-07T13:02:02.171Z,22.03
2023-03-07T13:04:50.730Z,17.87
2023-03-07T13:07:39.214Z,24.63
2023-03-07T13:10:29.530Z,17.53
2023-03-07T13:13:55.503Z,19.10
2023-03-07T13:16:45.194Z,19.20
2023-03-07T13:19:54.415Z,18.87
2023-03-07T13:23:02.248Z,21.03
2023-03-07T13:25:59.967Z,16.60
2023-03-07T13:28:53.500Z,22.50
2023-03-07T13:31:45.982Z,18.20
2023-03-07T13:34:51.680Z,16.83
2023-03-07T13:37:56.746Z,20.43
2023-03-07T13:40:56.340Z,18.10
2023-03-07T13:44:01.400Z,19.97
2023-03-07T13:46:51.784Z,16.97
2023-03-07T13:49:44.828Z,18.00
2023-03-07T13:52:40.040Z,17.60
2023-03-07T13:55:31.571Z,18.77
2023-03-07T13:58:26.795Z,16.97
2023-03-07T14:01:18.928Z,22.80
2023-03-07T14:04:12.815Z,16.63
2023-03-07T14:07:03.210Z,16.60
2023-03-07T14:09:53.380Z,19.13
2023-03-07T14:12:49.473Z,19.10
2023-03-07T14:15:47.878Z,16.63
2023-03-07T14:18:49.911Z,23.17
2023-03-07T14:21:55.014Z,20.17
2023-03-07T14:25:19.029Z,18.37
2023-03-07T14:28:21.708Z,19.13
2023-03-07T14:31:23.380Z,20.27
2023-03-07T14:34:19.710Z,20.00
2023-03-07T14:37:09.792Z,17.20
2023-03-07T14:40:28.798Z,19.83
2023-03-07T14:43:28.120Z,17.90
2023-03-07T14:46:24.024Z,20.63
2023-03-07T14:49:22.122Z,21.00
2023-03-07T14:52:24.615Z,18.33
2023-03-07T14:55:20.528Z,19.63
2023-03-07T14:58:08.940Z,18.30
2023-03-07T15:01:01.507Z,18.73
2023-03-07T15:03:52.589Z,20.10
2023-03-07T15:06:43.935Z,16.90
2023-03-07T15:09:33.614Z,17.97
2023-03-07T15:12:25.284Z,20.90
2023-03-07T15:15:21.444Z,18.70
2023-03-07T15:18:19.563Z,18.50
2023-03-07T15:21:15.898Z,18.27
2023-03-07T15:24:04.412Z,19.90
2023-03-07T15:26:54.208Z,18.63
2023-03-07T15:29:46.175Z,18.67
2023-03-07T15:32:36.724Z,17.47
2023-03-07T15:35:27.236Z,19.67
2023-03-07T15:38:19.978Z,19.50
2023-03-07T15:41:26.568Z,18.90
2023-03-07T15:44:21.282Z,17.67
2023-03-07T15:47:16.941Z,17.33
2023-03-07T15:50:06.432Z,17.20
2023-03-07T15:52:56.101Z,18.60
2023-03-07T15:55:47.117Z,20.03
2023-03-07T15:58:36.930Z,17.07
2023-03-07T16:01:27.443Z,17.87
2023-03-07T16:04:33.128Z,17.10
2023-03-07T16:07:46.777Z,17.63
2023-03-07T16:10:35.170Z,23.50
2023-03-07T16:13:49.926Z,18.20
2023-03-07T16:16:38.392Z,18.20
2023-03-07T16:19:27.459Z,18.10
2023-03-07T16:22:17.073Z,18.07
2023-03-07T16:25:07.724Z,18.53
2023-03-07T16:27:57.929Z,23.30
2023-03-07T16:30:48.007Z,18.10
2023-03-07T16:33:36.562Z,18.10
2023-03-07T16:36:25.106Z,18.87
2023-03-07T16:39:14.256Z,21.40
2023-03-07T16:42:02.934Z,23.10
2023-03-07T16:44:52.678Z,17.07
2023-03-07T16:47:42.679Z,19.57
2023-03-07T16:50:33.588Z,17.27
2023-03-07T16:53:22.474Z,17.40
2023-03-07T16:56:17.377Z,19.40
2023-03-07T16:59:08.420Z,18.57
2023-03-07T17:01:57.815Z,18.27
2023-03-07T17:04:48.326Z,18.53
2023-03-07T17:07:37.145Z,18.00
2023-03-07T17:10:27.455Z,18.17
2023-03-07T17:13:18.168Z,18.57
2023-03-07T17:16:07.083Z,17.13
2023-03-07T17:18:55.870Z,17.47
2023-03-07T17:21:45.787Z,17.20
2023-03-07T17:24:34.509Z,18.37
2023-03-07T17:27:23.334Z,17.03
2023-03-07T17:30:15.252Z,19.07
2023-03-07T17:33:04.046Z,17.00
2023-03-07T17:35:52.735Z,18.90
2023-03-07T17:38:42.658Z,20.57
2023-03-07T17:41:31.160Z,17.67
2023-03-07T17:44:19.859Z,16.30
2023-03-07T17:47:08.822Z,17.83
2023-03-07T17:49:57.950Z,18.07
2023-03-07T17:52:46.762Z,15.50
2023-03-07T17:55:37.976Z,16.00
2023-03-07T17:58:26.888Z,20.20
2023-03-07T18:01:16.309Z,18.50
2023-03-07T18:04:06.367Z,21.60
2023-03-07T18:06:55.559Z,23.43
2023-03-07T18:09:44.204Z,23.30
2023-03-07T18:12:34.580Z,24.67
2023-03-07T18:15:23.909Z,17.10
2023-03-07T18:18:12.453Z,19.57
2023-03-07T18:21:06.122Z,18.53
2023-03-07T18:23:54.880Z,19.30
2023-03-07T18:26:43.578Z,21.63
2023-03-07T18:29:33.761Z,16.13
2023-03-07T18:32:22.648Z,17.33
2023-03-07T18:35:11.863Z,22.53
2023-03-07T18:38:00.655Z,18.67
2023-03-07T18:40:49.442Z,17.40
2023-03-07T18:43:38.293Z,19.30
2023-03-07T18:46:30.688Z,20.67
2023-03-07T18:49:19.553Z,20.57
2023-03-07T18:52:08.207Z,20.63
2023-03-07T18:54:56.831Z,21.03
2023-03-07T18:57:45.435Z,20.70
2023-03-07T19:00:34.333Z,19.60
2023-03-07T19:03:24.758Z,24.87
2023-03-07T19:06:15.361Z,23.60
2023-03-07T19:09:04.860Z,21.40
2023-03-07T19:11:53.965Z,19.90
2023-03-07T19:14:43.272Z,20.83
2023-03-07T19:17:32.286Z,21.83
2023-03-07T19:20:22.622Z,21.43
2023-03-07T19:23:11.171Z,22.73
2023-03-07T19:26:02.888Z,20.60
2023-03-07T19:28:52.936Z,21.13
2023-03-07T19:31:43.891Z,22.13
2023-03-07T19:34:32.848Z,32.73
2023-03-07T19:37:23.364Z,21.20
2023-03-07T19:40:13.573Z,21.67
2023-03-07T19:43:02.472Z,26.43
2023-03-07T19:45:52.178Z,25.10
2023-03-07T19:48:41.338Z,23.93
2023-03-07T19:51:30.123Z,24.13
2023-03-07T19:54:22.671Z,26.83
2023-03-07T19:57:14.908Z,24.70
2023-03-07T20:00:04.278Z,22.13
2023-03-07T20:03:00.921Z,24.90
2023-03-07T20:05:50.150Z,24.17
2023-03-07T20:08:38.845Z,24.33
2023-03-07T20:11:30.771Z,24.50
2023-03-07T20:14:19.540Z,27.00
2023-03-07T20:17:08.326Z,27.70
2023-03-07T20:19:58.265Z,26.50
2023-03-07T20:22:47.090Z,24.33
2023-03-07T20:25:36.767Z,24.53
2023-03-07T20:28:26.851Z,24.40
2023-03-07T20:31:16.192Z,26.13
2023-03-07T20:34:05.183Z,25.73
2023-03-07T20:36:55.025Z,29.83
2023-03-07T20:39:44.121Z,33.03
2023-03-07T20:42:32.966Z,26.13
2023-03-07T20:45:23.499Z,25.53
2023-03-07T20:48:12.787Z,26.43
2023-03-07T20:51:06.596Z,25.20
2023-03-07T20:53:57.304Z,24.33
2023-03-07T20:56:47.385Z,24.93
2023-03-07T20:59:36.546Z,26.40
2023-03-07T21:02:26.741Z,22.60
2023-03-07T21:05:15.695Z,25.23
2023-03-07T21:08:04.553Z,24.23
2023-03-07T21:11:00.239Z,24.63
2023-03-07T21:13:50.395Z,23.87
2023-03-07T21:16:39.234Z,26.20
2023-03-07T21:19:29.337Z,24.93
2023-03-07T21:22:18.195Z,24.90
2023-03-07T21:25:08.808Z,24.83
2023-03-07T21:27:58.434Z,23.73
2023-03-07T21:30:49.185Z,22.33
2023-03-07T21:33:38.345Z,26.27
2023-03-07T21:36:31.423Z,27.00
2023-03-07T21:39:20.104Z,25.67
2023-03-07T21:42:09.263Z,24.33
2023-03-07T21:44:58.291Z,25.63
2023-03-07T21:47:48.782Z,24.80
2023-03-07T21:50:38.587Z,25.30
2023-03-07T21:53:29.282Z,25.80
2023-03-07T21:56:18.857Z,24.73
2023-03-07T21:59:07.865Z,24.00
2023-03-07T22:01:56.671Z,26.93
2023-03-07T22:04:45.586Z,24.13
2023-03-07T22:07:34.548Z,27.50
2023-03-07T22:10:24.682Z,29.70
2023-03-07T22:13:13.646Z,26.33
2023-03-07T22:16:04.473Z,23.50
2023-03-07T22:18:54.642Z,26.30
2023-03-07T22:21:43.991Z,25.00
2023-03-07T22:24:33.285Z,28.03
2023-03-07T22:27:23.885Z,23.93
2023-03-07T22:30:14.151Z,25.70
2023-03-07T22:33:03.346Z,25.00
2023-03-07T22:35:57.460Z,27.97
2023-03-07T22:38:46.545Z,26.87
2023-03-07T22:41:35.753Z,29.53
2023-03-07T22:44:26.235Z,26.23
2023-03-07T22:47:15.451Z,28.00
2023-03-07T22:50:05.731Z,29.70
2023-03-07T22:52:55.361Z,25.50
2023-03-07T22:55:45.142Z,25.50
2023-03-07T22:58:34.324Z,25.87
2023-03-07T23:01:26.154Z,23.53
2023-03-07T23:04:15.164Z,25.43
2023-03-07T23:07:04.277Z,25.57
2023-03-07T23:09:53.194Z,24.60
2023-03-07T23:12:41.926Z,24.03
2023-03-07T23:15:30.881Z,25.53
2023-03-07T23:18:21.273Z,25.30
2023-03-07T23:21:12.359Z,26.13
2023-03-07T23:24:02.565Z,27.30
2023-03-07T23:26:51.275Z,25.60
2023-03-07T23:29:39.948Z,22.73
2023-03-07T23:32:28.626Z,24.20
2023-03-07T23:35:18.645Z,25.20
2023-03-07T23:38:07.440Z,27.47
2023-03-07T23:40:56.701Z,23.13
2023-03-07T23:43:46.491Z,26.13
2023-03-07T23:46:35.728Z,24.50
2023-03-07T23:49:25.199Z,24.00
2023-03-07T23:52:15.546Z,23.80
2023-03-07T23:55:04.968Z,24.10
2023-03-07T23:57:54.011Z,22.53
